KHYS/HYS METAR and TAF weather

Enter ICAO airport designator
Station Type Date Time Source
KHYS METAR 2019/04/22 17:56 UTC NOAA

KHYS 221756Z AUTO 34016G21KT 10SM BKN029 17/08 A3010 RMK AO2 SLP186 6//// T01670078 10167 20122 50010 PNO $


Station Type Date Time Source
KHYS Decoded METAR 2019/04/22 17:56 UTC NOAA

Hays, Hays Regional Airport, KS, United States (KHYS) 38-51N 099-16W
Apr 22, 2019 - 01:56 PM EDT / 2019.04.22 1756 UTC
Wind: from the NNW (340 degrees) at 18 MPH (16 KT) gusting to 24 MPH (21 KT):0
Visibility: 10 mile(s):0
Sky conditions: mostly cloudy
Temperature: 62.1 F (16.7 C)
Dew Point: 46.0 F (7.8 C)
Relative Humidity: 55%
Pressure (altimeter): 30.1 in. Hg (1019 hPa)
Pressure tendency: 0.03 inches (1.0 hPa) higher than three hours ago
ob: KHYS 221756Z AUTO 34016G21KT 10SM BKN029 17/08 A3010 RMK AO2 SLP186 6//// T01670078 10167 20122 50010 PNO
cycle: 18

Station Type Date Time Source
KHYS TAF 2019/04/22 18:22 UTC NOAA

TAF KHYS 221720Z 2218/2318 33015KT P6SM OVC023
FM222200 35015G23KT P6SM SCT250
FM231600 03011KT P6SM SCT250

Example: see airport list